sensor_id;sensor_type;location;lat;lon;timestamp;temperature;humidity
20777;DHT22;10548;47.504;8.248;2023-08-21T00:00:17;22.90;99.90
20777;DHT22;10548;47.504;8.248;2023-08-21T00:02:44;23.00;99.90
20777;DHT22;10548;47.504;8.248;2023-08-21T00:05:11;22.90;99.90
20777;DHT22;10548;47.504;8.248;2023-08-21T00:07:38;22.80;99.90
20777;DHT22;10548;47.504;8.248;2023-08-21T00:10:06;22.80;99.90
20777;DHT22;10548;47.504;8.248;2023-08-21T00:12:34;22.70;99.90
20777;DHT22;10548;47.504;8.248;2023-08-21T00:15:01;22.70;99.90
20777;DHT22;10548;47.504;8.248;2023-08-21T00:17:29;22.70;99.90
20777;DHT22;10548;47.504;8.248;2023-08-21T00:19:56;22.70;99.90
20777;DHT22;10548;47.504;8.248;2023-08-21T00:22:23;22.60;99.90
20777;DHT22;10548;47.504;8.248;2023-08-21T00:24:50;22.60;99.90
20777;DHT22;10548;47.504;8.248;2023-08-21T00:27:17;22.60;99.90
20777;DHT22;10548;47.504;8.248;2023-08-21T00:29:44;22.60;99.90
20777;DHT22;10548;47.504;8.248;2023-08-21T00:32:12;22.60;99.90
20777;DHT22;10548;47.504;8.248;2023-08-21T00:34:39;22.50;99.90
20777;DHT22;10548;47.504;8.248;2023-08-21T00:37:06;22.50;99.90
20777;DHT22;10548;47.504;8.248;2023-08-21T00:39:33;22.50;99.90
20777;DHT22;10548;47.504;8.248;2023-08-21T00:42:00;22.40;99.90
20777;DHT22;10548;47.504;8.248;2023-08-21T00:44:28;22.40;99.90
20777;DHT22;10548;47.504;8.248;2023-08-21T00:46:55;22.40;99.90
20777;DHT22;10548;47.504;8.248;2023-08-21T00:49:22;22.40;99.90
20777;DHT22;10548;47.504;8.248;2023-08-21T00:51:50;22.40;99.90
20777;DHT22;10548;47.504;8.248;2023-08-21T00:54:19;22.40;99.90
20777;DHT22;10548;47.504;8.248;2023-08-21T00:56:46;22.40;99.90
20777;DHT22;10548;47.504;8.248;2023-08-21T00:59:18;22.30;99.90
20777;DHT22;10548;47.504;8.248;2023-08-21T01:01:45;22.30;99.90
20777;DHT22;10548;47.504;8.248;2023-08-21T01:04:12;22.30;99.90
20777;DHT22;10548;47.504;8.248;2023-08-21T01:06:40;22.30;99.90
20777;DHT22;10548;47.504;8.248;2023-08-21T01:09:16;22.30;99.90
20777;DHT22;10548;47.504;8.248;2023-08-21T01:12:05;22.30;99.90
20777;DHT22;10548;47.504;8.248;2023-08-21T01:14:51;22.30;99.90
20777;DHT22;10548;47.504;8.248;2023-08-21T01:17:22;22.20;99.90
20777;DHT22;10548;47.504;8.248;2023-08-21T01:19:50;22.20;99.90
20777;DHT22;10548;47.504;8.248;2023-08-21T01:22:26;22.20;99.90
20777;DHT22;10548;47.504;8.248;2023-08-21T01:24:54;22.10;99.90
20777;DHT22;10548;47.504;8.248;2023-08-21T01:27:21;22.10;99.90
20777;DHT22;10548;47.504;8.248;2023-08-21T01:29:49;22.00;99.90
20777;DHT22;10548;47.504;8.248;2023-08-21T01:32:59;21.90;99.90
20777;DHT22;10548;47.504;8.248;2023-08-21T01:35:27;21.90;99.90
20777;DHT22;10548;47.504;8.248;2023-08-21T01:37:55;21.90;99.90
20777;DHT22;10548;47.504;8.248;2023-08-21T01:40:23;21.80;99.90
20777;DHT22;10548;47.504;8.248;2023-08-21T01:42:52;21.80;99.90
20777;DHT22;10548;47.504;8.248;2023-08-21T01:45:20;21.80;99.90
20777;DHT22;10548;47.504;8.248;2023-08-21T01:47:50;21.80;99.90
20777;DHT22;10548;47.504;8.248;2023-08-21T01:50:17;21.80;99.90
20777;DHT22;10548;47.504;8.248;2023-08-21T01:52:44;21.80;99.90
20777;DHT22;10548;47.504;8.248;2023-08-21T01:55:12;21.80;99.90
20777;DHT22;10548;47.504;8.248;2023-08-21T01:57:39;21.80;99.90
20777;DHT22;10548;47.504;8.248;2023-08-21T02:00:07;21.70;99.90
20777;DHT22;10548;47.504;8.248;2023-08-21T02:02:40;21.70;99.90
20777;DHT22;10548;47.504;8.248;2023-08-21T02:05:08;21.70;99.90
20777;DHT22;10548;47.504;8.248;2023-08-21T02:07:35;21.70;99.90
20777;DHT22;10548;47.504;8.248;2023-08-21T02:10:03;21.70;99.90
20777;DHT22;10548;47.504;8.248;2023-08-21T02:12:33;21.80;99.90
20777;DHT22;10548;47.504;8.248;2023-08-21T02:15:03;21.80;99.90
20777;DHT22;10548;47.504;8.248;2023-08-21T02:17:32;21.80;99.90
20777;DHT22;10548;47.504;8.248;2023-08-21T02:19:59;21.70;99.90
20777;DHT22;10548;47.504;8.248;2023-08-21T02:22:26;21.60;99.90
20777;DHT22;10548;47.504;8.248;2023-08-21T02:24:54;21.50;99.90
20777;DHT22;10548;47.504;8.248;2023-08-21T02:27:21;21.50;99.90
20777;DHT22;10548;47.504;8.248;2023-08-21T02:29:49;21.50;99.90
20777;DHT22;10548;47.504;8.248;2023-08-21T02:32:16;21.40;99.90
20777;DHT22;10548;47.504;8.248;2023-08-21T02:34:43;21.50;99.90
20777;DHT22;10548;47.504;8.248;2023-08-21T02:37:10;21.40;99.90
20777;DHT22;10548;47.504;8.248;2023-08-21T02:39:37;21.40;99.90
20777;DHT22;10548;47.504;8.248;2023-08-21T02:42:04;21.40;99.90
20777;DHT22;10548;47.504;8.248;2023-08-21T02:44:31;21.30;99.90
20777;DHT22;10548;47.504;8.248;2023-08-21T02:46:58;21.30;99.90
20777;DHT22;10548;47.504;8.248;2023-08-21T02:49:25;21.30;99.90
20777;DHT22;10548;47.504;8.248;2023-08-21T02:51:52;21.20;99.90
20777;DHT22;10548;47.504;8.248;2023-08-21T02:54:20;21.20;99.90
20777;DHT22;10548;47.504;8.248;2023-08-21T02:56:47;21.30;99.90
20777;DHT22;10548;47.504;8.248;2023-08-21T02:59:15;21.30;99.90
20777;DHT22;10548;47.504;8.248;2023-08-21T03:01:42;21.30;99.90
20777;DHT22;10548;47.504;8.248;2023-08-21T03:04:09;21.30;99.90
20777;DHT22;10548;47.504;8.248;2023-08-21T03:06:36;21.30;99.90
20777;DHT22;10548;47.504;8.248;2023-08-21T03:09:03;21.30;99.90
20777;DHT22;10548;47.504;8.248;2023-08-21T03:11:30;21.30;99.90
20777;DHT22;10548;47.504;8.248;2023-08-21T03:13:57;21.30;99.90
20777;DHT22;10548;47.504;8.248;2023-08-21T03:16:24;21.30;99.90
20777;DHT22;10548;47.504;8.248;2023-08-21T03:18:56;21.30;99.90
20777;DHT22;10548;47.504;8.248;2023-08-21T03:21:25;21.30;99.90
20777;DHT22;10548;47.504;8.248;2023-08-21T03:23:56;21.40;99.90
20777;DHT22;10548;47.504;8.248;2023-08-21T03:26:23;21.40;99.90
20777;DHT22;10548;47.504;8.248;2023-08-21T03:28:52;21.30;99.90
20777;DHT22;10548;47.504;8.248;2023-08-21T03:31:19;21.20;99.90
20777;DHT22;10548;47.504;8.248;2023-08-21T03:33:46;21.20;99.90
20777;DHT22;10548;47.504;8.248;2023-08-21T03:36:16;21.10;99.90
20777;DHT22;10548;47.504;8.248;2023-08-21T03:38:44;21.10;99.90
20777;DHT22;10548;47.504;8.248;2023-08-21T03:41:11;21.20;99.90
20777;DHT22;10548;47.504;8.248;2023-08-21T03:43:40;21.20;99.90
20777;DHT22;10548;47.504;8.248;2023-08-21T03:46:07;21.10;99.90
20777;DHT22;10548;47.504;8.248;2023-08-21T03:48:34;21.00;99.90
20777;DHT22;10548;47.504;8.248;2023-08-21T03:51:01;21.00;99.90
20777;DHT22;10548;47.504;8.248;2023-08-21T03:53:30;21.00;99.90
20777;DHT22;10548;47.504;8.248;2023-08-21T03:55:57;21.00;99.90
20777;DHT22;10548;47.504;8.248;2023-08-21T03:58:24;20.90;99.90
20777;DHT22;10548;47.504;8.248;2023-08-21T04:00:53;20.90;99.90
20777;DHT22;10548;47.504;8.248;2023-08-21T04:03:21;20.90;99.90
20777;DHT22;10548;47.504;8.248;2023-08-21T04:05:48;20.90;99.90
20777;DHT22;10548;47.504;8.248;2023-08-21T04:08:16;20.80;99.90
20777;DHT22;10548;47.504;8.248;2023-08-21T04:10:43;20.80;99.90
20777;DHT22;10548;47.504;8.248;2023-08-21T04:13:10;20.80;99.90
20777;DHT22;10548;47.504;8.248;2023-08-21T04:15:37;20.80;99.90
20777;DHT22;10548;47.504;8.248;2023-08-21T04:18:05;20.80;99.90
20777;DHT22;10548;47.504;8.248;2023-08-21T04:20:32;20.90;99.90
20777;DHT22;10548;47.504;8.248;2023-08-21T04:22:59;20.80;99.90
20777;DHT22;10548;47.504;8.248;2023-08-21T04:25:26;20.80;99.90
20777;DHT22;10548;47.504;8.248;2023-08-21T04:27:53;20.80;99.90
20777;DHT22;10548;47.504;8.248;2023-08-21T04:30:21;20.80;99.90
20777;DHT22;10548;47.504;8.248;2023-08-21T04:32:48;20.80;99.90
20777;DHT22;10548;47.504;8.248;2023-08-21T04:35:16;20.80;99.90
20777;DHT22;10548;47.504;8.248;2023-08-21T04:37:45;20.70;99.90
20777;DHT22;10548;47.504;8.248;2023-08-21T04:40:14;20.70;99.90
20777;DHT22;10548;47.504;8.248;2023-08-21T04:42:41;20.80;99.90
20777;DHT22;10548;47.504;8.248;2023-08-21T04:45:09;20.70;99.90
20777;DHT22;10548;47.504;8.248;2023-08-21T04:47:37;20.80;99.90
20777;DHT22;10548;47.504;8.248;2023-08-21T04:50:05;20.80;99.90
20777;DHT22;10548;47.504;8.248;2023-08-21T04:52:32;20.80;99.90
20777;DHT22;10548;47.504;8.248;2023-08-21T04:55:00;20.80;99.90
20777;DHT22;10548;47.504;8.248;2023-08-21T04:57:29;20.80;99.90
20777;DHT22;10548;47.504;8.248;2023-08-21T04:59:57;20.90;99.90
20777;DHT22;10548;47.504;8.248;2023-08-21T05:02:30;20.90;99.90
20777;DHT22;10548;47.504;8.248;2023-08-21T05:04:57;20.90;99.90
20777;DHT22;10548;47.504;8.248;2023-08-21T05:07:25;20.90;99.90
20777;DHT22;10548;47.504;8.248;2023-08-21T05:09:59;20.90;99.90
20777;DHT22;10548;47.504;8.248;2023-08-21T05:12:29;20.90;99.90
20777;DHT22;10548;47.504;8.248;2023-08-21T05:14:56;20.90;99.90
20777;DHT22;10548;47.504;8.248;2023-08-21T05:17:24;21.00;99.90
20777;DHT22;10548;47.504;8.248;2023-08-21T05:19:52;21.00;99.90
20777;DHT22;10548;47.504;8.248;2023-08-21T05:22:19;21.00;99.90
20777;DHT22;10548;47.504;8.248;2023-08-21T05:24:47;21.10;99.90
20777;DHT22;10548;47.504;8.248;2023-08-21T05:27:15;21.10;99.90
20777;DHT22;10548;47.504;8.248;2023-08-21T05:29:42;21.20;99.90
20777;DHT22;10548;47.504;8.248;2023-08-21T05:32:09;21.30;99.90
20777;DHT22;10548;47.504;8.248;2023-08-21T05:34:36;21.30;99.90
20777;DHT22;10548;47.504;8.248;2023-08-21T05:37:04;21.40;99.90
20777;DHT22;10548;47.504;8.248;2023-08-21T05:39:31;21.50;99.90
20777;DHT22;10548;47.504;8.248;2023-08-21T05:41:58;21.50;99.90
20777;DHT22;10548;47.504;8.248;2023-08-21T05:44:25;21.50;99.90
20777;DHT22;10548;47.504;8.248;2023-08-21T05:46:54;21.60;99.90
20777;DHT22;10548;47.504;8.248;2023-08-21T05:49:21;21.70;99.90
20777;DHT22;10548;47.504;8.248;2023-08-21T05:51:48;21.70;99.90
20777;DHT22;10548;47.504;8.248;2023-08-21T05:54:15;21.70;99.90
20777;DHT22;10548;47.504;8.248;2023-08-21T05:56:42;21.80;99.90
20777;DHT22;10548;47.504;8.248;2023-08-21T05:59:12;21.90;99.90
20777;DHT22;10548;47.504;8.248;2023-08-21T06:01:52;22.00;99.90
20777;DHT22;10548;47.504;8.248;2023-08-21T06:04:20;22.10;99.90
20777;DHT22;10548;47.504;8.248;2023-08-21T06:06:55;22.20;99.90
20777;DHT22;10548;47.504;8.248;2023-08-21T06:09:22;22.20;99.90
20777;DHT22;10548;47.504;8.248;2023-08-21T06:11:49;22.30;99.90
20777;DHT22;10548;47.504;8.248;2023-08-21T06:14:16;22.50;99.90
20777;DHT22;10548;47.504;8.248;2023-08-21T06:16:43;22.50;99.90
20777;DHT22;10548;47.504;8.248;2023-08-21T06:19:12;22.40;99.90
20777;DHT22;10548;47.504;8.248;2023-08-21T06:21:39;22.50;99.90
20777;DHT22;10548;47.504;8.248;2023-08-21T06:24:06;22.50;99.90
20777;DHT22;10548;47.504;8.248;2023-08-21T06:26:34;22.50;99.90
20777;DHT22;10548;47.504;8.248;2023-08-21T06:29:01;22.50;99.90
20777;DHT22;10548;47.504;8.248;2023-08-21T06:31:28;22.70;99.90
20777;DHT22;10548;47.504;8.248;2023-08-21T06:33:55;22.80;99.90
20777;DHT22;10548;47.504;8.248;2023-08-21T06:36:23;22.80;99.90
20777;DHT22;10548;47.504;8.248;2023-08-21T06:38:50;23.00;99.90
20777;DHT22;10548;47.504;8.248;2023-08-21T06:41:17;23.10;99.90
20777;DHT22;10548;47.504;8.248;2023-08-21T06:43:45;23.10;99.90
20777;DHT22;10548;47.504;8.248;2023-08-21T06:46:16;23.20;99.90
20777;DHT22;10548;47.504;8.248;2023-08-21T06:48:43;23.20;99.90
20777;DHT22;10548;47.504;8.248;2023-08-21T06:51:11;23.20;99.90
20777;DHT22;10548;47.504;8.248;2023-08-21T06:53:41;23.00;99.90
20777;DHT22;10548;47.504;8.248;2023-08-21T06:56:09;23.30;99.90
20777;DHT22;10548;47.504;8.248;2023-08-21T06:58:36;23.50;99.90
20777;DHT22;10548;47.504;8.248;2023-08-21T07:01:03;23.50;99.90
20777;DHT22;10548;47.504;8.248;2023-08-21T07:03:30;23.60;99.90
20777;DHT22;10548;47.504;8.248;2023-08-21T07:05:59;23.60;99.90
20777;DHT22;10548;47.504;8.248;2023-08-21T07:08:27;23.60;99.90
20777;DHT22;10548;47.504;8.248;2023-08-21T07:10:54;23.60;99.90
20777;DHT22;10548;47.504;8.248;2023-08-21T07:13:21;23.60;99.90
20777;DHT22;10548;47.504;8.248;2023-08-21T07:15:52;23.70;99.90
20777;DHT22;10548;47.504;8.248;2023-08-21T07:18:20;23.80;99.90
20777;DHT22;10548;47.504;8.248;2023-08-21T07:20:47;23.90;99.90
20777;DHT22;10548;47.504;8.248;2023-08-21T07:23:14;24.00;99.90
20777;DHT22;10548;47.504;8.248;2023-08-21T07:25:43;24.30;99.90
20777;DHT22;10548;47.504;8.248;2023-08-21T07:28:11;24.70;99.90
20777;DHT22;10548;47.504;8.248;2023-08-21T07:30:38;24.50;99.90
20777;DHT22;10548;47.504;8.248;2023-08-21T07:33:06;24.70;99.90
20777;DHT22;10548;47.504;8.248;2023-08-21T07:35:33;24.90;99.90
20777;DHT22;10548;47.504;8.248;2023-08-21T07:38:00;25.00;99.90
20777;DHT22;10548;47.504;8.248;2023-08-21T07:40:27;25.20;99.90
20777;DHT22;10548;47.504;8.248;2023-08-21T07:42:54;25.00;99.90
20777;DHT22;10548;47.504;8.248;2023-08-21T07:45:21;25.30;99.90
20777;DHT22;10548;47.504;8.248;2023-08-21T07:47:49;25.20;99.90
20777;DHT22;10548;47.504;8.248;2023-08-21T07:50:34;25.30;99.90
20777;DHT22;10548;47.504;8.248;2023-08-21T07:53:02;25.60;99.90
20777;DHT22;10548;47.504;8.248;2023-08-21T07:55:29;25.60;99.90
20777;DHT22;10548;47.504;8.248;2023-08-21T07:57:56;25.80;99.90
20777;DHT22;10548;47.504;8.248;2023-08-21T08:00:24;25.70;99.90
20777;DHT22;10548;47.504;8.248;2023-08-21T08:02:51;26.30;99.90
20777;DHT22;10548;47.504;8.248;2023-08-21T08:05:18;26.70;99.90
20777;DHT22;10548;47.504;8.248;2023-08-21T08:07:45;27.10;99.90
20777;DHT22;10548;47.504;8.248;2023-08-21T08:10:12;26.60;99.90
20777;DHT22;10548;47.504;8.248;2023-08-21T08:12:42;26.30;99.90
20777;DHT22;10548;47.504;8.248;2023-08-21T08:15:11;27.00;99.90
20777;DHT22;10548;47.504;8.248;2023-08-21T08:17:38;27.10;99.90
20777;DHT22;10548;47.504;8.248;2023-08-21T08:20:05;27.50;99.90
20777;DHT22;10548;47.504;8.248;2023-08-21T08:22:33;27.80;99.90
20777;DHT22;10548;47.504;8.248;2023-08-21T08:25:00;27.10;99.90
20777;DHT22;10548;47.504;8.248;2023-08-21T08:27:27;27.10;99.90
20777;DHT22;10548;47.504;8.248;2023-08-21T08:29:54;27.50;99.90
20777;DHT22;10548;47.504;8.248;2023-08-21T08:32:21;27.90;99.90
20777;DHT22;10548;47.504;8.248;2023-08-21T08:34:48;27.90;99.90
20777;DHT22;10548;47.504;8.248;2023-08-21T08:37:15;28.30;99.90
20777;DHT22;10548;47.504;8.248;2023-08-21T08:39:43;27.90;99.90
20777;DHT22;10548;47.504;8.248;2023-08-21T08:42:10;28.50;99.90
20777;DHT22;10548;47.504;8.248;2023-08-21T08:44:38;28.50;99.90
20777;DHT22;10548;47.504;8.248;2023-08-21T08:47:08;27.90;99.50
20777;DHT22;10548;47.504;8.248;2023-08-21T08:49:37;28.10;98.70
20777;DHT22;10548;47.504;8.248;2023-08-21T08:52:04;28.40;99.00
20777;DHT22;10548;47.504;8.248;2023-08-21T08:54:32;28.50;99.90
20777;DHT22;10548;47.504;8.248;2023-08-21T08:57:00;28.60;99.90
20777;DHT22;10548;47.504;8.248;2023-08-21T08:59:30;29.00;99.00
20777;DHT22;10548;47.504;8.248;2023-08-21T09:01:57;29.30;97.10
20777;DHT22;10548;47.504;8.248;2023-08-21T09:04:25;29.60;95.30
20777;DHT22;10548;47.504;8.248;2023-08-21T09:06:52;29.30;96.80
20777;DHT22;10548;47.504;8.248;2023-08-21T09:09:38;30.00;93.10
20777;DHT22;10548;47.504;8.248;2023-08-21T09:12:10;29.90;92.80
20777;DHT22;10548;47.504;8.248;2023-08-21T09:14:40;29.50;91.50
20777;DHT22;10548;47.504;8.248;2023-08-21T09:17:07;29.60;92.40
20777;DHT22;10548;47.504;8.248;2023-08-21T09:19:35;29.70;93.80
20777;DHT22;10548;47.504;8.248;2023-08-21T09:22:14;30.00;91.10
20777;DHT22;10548;47.504;8.248;2023-08-21T09:25:05;30.20;91.20
20777;DHT22;10548;47.504;8.248;2023-08-21T09:27:40;30.10;92.00
20777;DHT22;10548;47.504;8.248;2023-08-21T09:30:12;29.90;89.90
20777;DHT22;10548;47.504;8.248;2023-08-21T09:32:59;29.90;90.90
20777;DHT22;10548;47.504;8.248;2023-08-21T09:35:33;29.90;88.40
20777;DHT22;10548;47.504;8.248;2023-08-21T09:38:00;30.30;89.90
20777;DHT22;10548;47.504;8.248;2023-08-21T09:40:27;30.30;90.00
20777;DHT22;10548;47.504;8.248;2023-08-21T09:42:55;30.70;83.20
20777;DHT22;10548;47.504;8.248;2023-08-21T09:45:24;30.80;90.70
20777;DHT22;10548;47.504;8.248;2023-08-21T09:47:54;30.40;90.00
20777;DHT22;10548;47.504;8.248;2023-08-21T09:50:21;30.50;86.50
20777;DHT22;10548;47.504;8.248;2023-08-21T09:52:49;31.20;79.80
20777;DHT22;10548;47.504;8.248;2023-08-21T09:55:18;31.20;76.60
20777;DHT22;10548;47.504;8.248;2023-08-21T09:57:49;31.60;75.50
20777;DHT22;10548;47.504;8.248;2023-08-21T10:00:32;32.40;72.70
20777;DHT22;10548;47.504;8.248;2023-08-21T10:03:06;32.60;74.30
20777;DHT22;10548;47.504;8.248;2023-08-21T10:05:35;31.20;76.30
20777;DHT22;10548;47.504;8.248;2023-08-21T10:08:04;31.70;75.50
20777;DHT22;10548;47.504;8.248;2023-08-21T10:10:34;31.70;70.30
20777;DHT22;10548;47.504;8.248;2023-08-21T10:13:02;31.40;74.70
20777;DHT22;10548;47.504;8.248;2023-08-21T10:15:31;33.20;69.80
20777;DHT22;10548;47.504;8.248;2023-08-21T10:18:21;32.10;69.10
20777;DHT22;10548;47.504;8.248;2023-08-21T10:20:48;32.00;73.50
20777;DHT22;10548;47.504;8.248;2023-08-21T10:23:30;31.90;77.80
20777;DHT22;10548;47.504;8.248;2023-08-21T10:25:59;31.60;72.70
20777;DHT22;10548;47.504;8.248;2023-08-21T10:31:39;32.30;65.90
20777;DHT22;10548;47.504;8.248;2023-08-21T10:34:08;33.40;65.10
20777;DHT22;10548;47.504;8.248;2023-08-21T10:37:15;32.60;66.60
20777;DHT22;10548;47.504;8.248;2023-08-21T10:39:55;31.80;67.70
20777;DHT22;10548;47.504;8.248;2023-08-21T10:42:39;31.80;67.00
20777;DHT22;10548;47.504;8.248;2023-08-21T10:45:12;32.50;66.70
20777;DHT22;10548;47.504;8.248;2023-08-21T10:47:39;32.20;66.30
20777;DHT22;10548;47.504;8.248;2023-08-21T10:50:08;32.60;67.70
20777;DHT22;10548;47.504;8.248;2023-08-21T10:52:40;32.50;62.40
20777;DHT22;10548;47.504;8.248;2023-08-21T10:55:13;33.40;59.40
20777;DHT22;10548;47.504;8.248;2023-08-21T10:57:42;34.70;55.80
20777;DHT22;10548;47.504;8.248;2023-08-21T11:00:11;33.90;59.80
20777;DHT22;10548;47.504;8.248;2023-08-21T11:02:40;34.20;57.50
20777;DHT22;10548;47.504;8.248;2023-08-21T11:05:09;33.90;57.60
20777;DHT22;10548;47.504;8.248;2023-08-21T11:07:44;33.80;60.90
20777;DHT22;10548;47.504;8.248;2023-08-21T11:10:14;34.00;54.80
20777;DHT22;10548;47.504;8.248;2023-08-21T11:13:07;33.80;60.20
20777;DHT22;10548;47.504;8.248;2023-08-21T11:15:35;33.60;59.70
20777;DHT22;10548;47.504;8.248;2023-08-21T11:18:02;33.10;56.50
20777;DHT22;10548;47.504;8.248;2023-08-21T11:20:36;33.50;54.30
20777;DHT22;10548;47.504;8.248;2023-08-21T11:23:05;33.90;53.40
20777;DHT22;10548;47.504;8.248;2023-08-21T11:25:35;34.40;50.20
20777;DHT22;10548;47.504;8.248;2023-08-21T11:28:05;34.70;49.00
20777;DHT22;10548;47.504;8.248;2023-08-21T11:30:33;34.90;51.80
20777;DHT22;10548;47.504;8.248;2023-08-21T11:33:11;35.50;48.80
20777;DHT22;10548;47.504;8.248;2023-08-21T11:35:39;34.50;49.10
20777;DHT22;10548;47.504;8.248;2023-08-21T11:38:06;34.10;50.50
20777;DHT22;10548;47.504;8.248;2023-08-21T11:40:40;34.00;49.60
20777;DHT22;10548;47.504;8.248;2023-08-21T11:43:07;33.50;49.50
20777;DHT22;10548;47.504;8.248;2023-08-21T11:45:36;34.30;48.40
20777;DHT22;10548;47.504;8.248;2023-08-21T11:48:22;35.10;46.40
20777;DHT22;10548;47.504;8.248;2023-08-21T11:50:49;34.60;44.90
20777;DHT22;10548;47.504;8.248;2023-08-21T11:53:42;35.90;45.50
20777;DHT22;10548;47.504;8.248;2023-08-21T11:56:17;35.40;48.70
20777;DHT22;10548;47.504;8.248;2023-08-21T11:58:46;35.00;46.90
20777;DHT22;10548;47.504;8.248;2023-08-21T12:01:18;35.00;45.40
20777;DHT22;10548;47.504;8.248;2023-08-21T12:03:45;36.60;44.00
20777;DHT22;10548;47.504;8.248;2023-08-21T12:06:13;37.70;40.60
20777;DHT22;10548;47.504;8.248;2023-08-21T12:08:40;36.10;43.90
20777;DHT22;10548;47.504;8.248;2023-08-21T12:11:07;35.20;41.30
20777;DHT22;10548;47.504;8.248;2023-08-21T12:13:35;35.50;41.20
20777;DHT22;10548;47.504;8.248;2023-08-21T12:16:03;36.40;39.00
20777;DHT22;10548;47.504;8.248;2023-08-21T12:18:30;37.40;38.20
20777;DHT22;10548;47.504;8.248;2023-08-21T12:20:57;36.70;40.10
20777;DHT22;10548;47.504;8.248;2023-08-21T12:23:25;37.50;38.60
20777;DHT22;10548;47.504;8.248;2023-08-21T12:25:52;35.60;43.70
20777;DHT22;10548;47.504;8.248;2023-08-21T12:28:19;34.80;41.20
20777;DHT22;10548;47.504;8.248;2023-08-21T12:30:46;35.40;42.80
20777;DHT22;10548;47.504;8.248;2023-08-21T12:33:14;35.60;40.70
20777;DHT22;10548;47.504;8.248;2023-08-21T12:35:50;36.40;40.70
20777;DHT22;10548;47.504;8.248;2023-08-21T12:38:17;37.00;40.10
20777;DHT22;10548;47.504;8.248;2023-08-21T12:40:44;37.50;35.80
20777;DHT22;10548;47.504;8.248;2023-08-21T12:43:12;39.10;33.10
20777;DHT22;10548;47.504;8.248;2023-08-21T12:45:39;38.60;31.70
20777;DHT22;10548;47.504;8.248;2023-08-21T12:48:06;39.70;31.30
20777;DHT22;10548;47.504;8.248;2023-08-21T12:50:33;38.80;31.40
20777;DHT22;10548;47.504;8.248;2023-08-21T12:53:00;36.80;37.20
20777;DHT22;10548;47.504;8.248;2023-08-21T12:55:28;35.60;35.70
20777;DHT22;10548;47.504;8.248;2023-08-21T12:57:58;37.10;33.50
20777;DHT22;10548;47.504;8.248;2023-08-21T13:00:26;36.30;38.40
20777;DHT22;10548;47.504;8.248;2023-08-21T13:02:53;37.10;39.00
20777;DHT22;10548;47.504;8.248;2023-08-21T13:05:20;37.20;36.50
20777;DHT22;10548;47.504;8.248;2023-08-21T13:07:47;38.00;34.20
20777;DHT22;10548;47.504;8.248;2023-08-21T13:10:14;38.70;35.30
20777;DHT22;10548;47.504;8.248;2023-08-21T13:12:41;38.00;32.50
20777;DHT22;10548;47.504;8.248;2023-08-21T13:15:09;37.40;36.60
20777;DHT22;10548;47.504;8.248;2023-08-21T13:17:36;37.40;35.80
20777;DHT22;10548;47.504;8.248;2023-08-21T13:20:04;38.30;34.80
20777;DHT22;10548;47.504;8.248;2023-08-21T13:22:48;35.20;35.30
20777;DHT22;10548;47.504;8.248;2023-08-21T13:25:19;35.40;37.80
20777;DHT22;10548;47.504;8.248;2023-08-21T13:27:47;36.10;37.70
20777;DHT22;10548;47.504;8.248;2023-08-21T13:30:14;36.00;37.90
20777;DHT22;10548;47.504;8.248;2023-08-21T13:32:43;37.00;36.40
20777;DHT22;10548;47.504;8.248;2023-08-21T13:35:11;36.00;36.70
20777;DHT22;10548;47.504;8.248;2023-08-21T13:37:39;37.30;33.00
20777;DHT22;10548;47.504;8.248;2023-08-21T13:40:07;37.10;32.20
20777;DHT22;10548;47.504;8.248;2023-08-21T13:42:48;37.00;32.30
20777;DHT22;10548;47.504;8.248;2023-08-21T13:45:17;38.10;31.20
20777;DHT22;10548;47.504;8.248;2023-08-21T13:47:46;38.70;29.40
20777;DHT22;10548;47.504;8.248;2023-08-21T13:50:16;37.40;31.20
20777;DHT22;10548;47.504;8.248;2023-08-21T13:52:44;38.30;31.10
20777;DHT22;10548;47.504;8.248;2023-08-21T13:55:13;38.80;31.60
20777;DHT22;10548;47.504;8.248;2023-08-21T13:57:41;39.10;28.30
20777;DHT22;10548;47.504;8.248;2023-08-21T14:00:09;39.10;28.90
20777;DHT22;10548;47.504;8.248;2023-08-21T14:02:40;38.70;27.70
20777;DHT22;10548;47.504;8.248;2023-08-21T14:05:09;39.50;27.10
20777;DHT22;10548;47.504;8.248;2023-08-21T14:07:37;40.20;26.90
20777;DHT22;10548;47.504;8.248;2023-08-21T14:10:07;40.00;26.00
20777;DHT22;10548;47.504;8.248;2023-08-21T14:12:34;39.60;27.20
20777;DHT22;10548;47.504;8.248;2023-08-21T14:15:05;39.40;27.10
20777;DHT22;10548;47.504;8.248;2023-08-21T14:17:32;39.70;26.70
20777;DHT22;10548;47.504;8.248;2023-08-21T14:20:00;40.10;27.00
20777;DHT22;10548;47.504;8.248;2023-08-21T14:22:27;38.90;30.00
20777;DHT22;10548;47.504;8.248;2023-08-21T14:24:54;37.30;27.80
20777;DHT22;10548;47.504;8.248;2023-08-21T14:27:21;38.60;26.90
20777;DHT22;10548;47.504;8.248;2023-08-21T14:29:48;37.80;26.80
20777;DHT22;10548;47.504;8.248;2023-08-21T14:32:16;37.90;28.30
20777;DHT22;10548;47.504;8.248;2023-08-21T14:34:43;36.80;29.10
20777;DHT22;10548;47.504;8.248;2023-08-21T14:37:10;37.70;30.30
20777;DHT22;10548;47.504;8.248;2023-08-21T14:39:42;39.30;28.30
20777;DHT22;10548;47.504;8.248;2023-08-21T14:42:12;39.80;26.70
20777;DHT22;10548;47.504;8.248;2023-08-21T14:44:39;37.40;29.50
20777;DHT22;10548;47.504;8.248;2023-08-21T14:47:07;37.50;29.80
20777;DHT22;10548;47.504;8.248;2023-08-21T14:49:35;38.00;28.90
20777;DHT22;10548;47.504;8.248;2023-08-21T14:52:02;38.70;27.10
20777;DHT22;10548;47.504;8.248;2023-08-21T14:54:30;38.40;28.60
20777;DHT22;10548;47.504;8.248;2023-08-21T14:56:57;38.80;27.20
20777;DHT22;10548;47.504;8.248;2023-08-21T14:59:24;38.80;27.70
20777;DHT22;10548;47.504;8.248;2023-08-21T15:01:52;39.40;25.80
20777;DHT22;10548;47.504;8.248;2023-08-21T15:04:19;39.50;24.60
20777;DHT22;10548;47.504;8.248;2023-08-21T15:06:46;38.70;26.20
20777;DHT22;10548;47.504;8.248;2023-08-21T15:09:13;39.00;26.60
20777;DHT22;10548;47.504;8.248;2023-08-21T15:11:40;39.10;25.40
20777;DHT22;10548;47.504;8.248;2023-08-21T15:14:11;39.40;25.10
20777;DHT22;10548;47.504;8.248;2023-08-21T15:16:39;39.20;24.50
20777;DHT22;10548;47.504;8.248;2023-08-21T15:19:06;39.10;22.70
20777;DHT22;10548;47.504;8.248;2023-08-21T15:21:34;36.50;26.30
20777;DHT22;10548;47.504;8.248;2023-08-21T15:24:01;37.70;25.90
20777;DHT22;10548;47.504;8.248;2023-08-21T15:26:31;37.50;25.50
20777;DHT22;10548;47.504;8.248;2023-08-21T15:28:59;38.20;26.60
20777;DHT22;10548;47.504;8.248;2023-08-21T15:31:26;39.00;25.30
20777;DHT22;10548;47.504;8.248;2023-08-21T15:33:54;38.60;25.40
20777;DHT22;10548;47.504;8.248;2023-08-21T15:36:21;38.40;24.80
20777;DHT22;10548;47.504;8.248;2023-08-21T15:38:48;38.70;23.30
20777;DHT22;10548;47.504;8.248;2023-08-21T15:41:15;39.00;23.30
20777;DHT22;10548;47.504;8.248;2023-08-21T15:43:42;38.60;24.20